createdAt,value
2022-11-10T00:00:01.040Z,78038.13
2022-11-10T00:01:52.450Z,78042.09
2022-11-10T00:03:44.103Z,78044.06
2022-11-10T00:05:38.280Z,78030.22
2022-11-10T00:07:29.765Z,78040.09
2022-11-10T00:09:21.628Z,78032.19
2022-11-10T00:11:13.012Z,78034.19
2022-11-10T00:13:04.461Z,78044.06
2022-11-10T00:15:14.256Z,78050.00
2022-11-10T00:17:05.906Z,78042.09
2022-11-10T00:18:56.937Z,78036.16
2022-11-10T00:20:48.285Z,78036.16
2022-11-10T00:22:41.008Z,78032.19
2022-11-10T00:24:32.507Z,78038.13
2022-11-10T00:26:23.861Z,78038.13
2022-11-10T00:28:15.615Z,78038.13
2022-11-10T00:30:07.102Z,78032.19
2022-11-10T00:31:58.759Z,78036.16
2022-11-10T00:33:50.223Z,78032.19
2022-11-10T00:35:41.690Z,78032.19
2022-11-10T00:37:33.228Z,78042.09
2022-11-10T00:39:24.816Z,78038.13
2022-11-10T00:41:16.130Z,78036.16
2022-11-10T00:43:07.605Z,78036.16
2022-11-10T00:44:59.118Z,78030.22
2022-11-10T00:46:50.565Z,78028.25
2022-11-10T00:48:41.979Z,78028.25
2022-11-10T00:50:33.463Z,78028.25
2022-11-10T00:52:24.947Z,78032.19
2022-11-10T00:54:16.964Z,78030.22
2022-11-10T00:56:08.205Z,78024.28
2022-11-10T00:57:59.352Z,78028.25
2022-11-10T00:59:50.938Z,78024.28
2022-11-10T01:01:42.220Z,78032.19
2022-11-10T01:03:34.290Z,78030.22
2022-11-10T01:05:26.092Z,78032.19
2022-11-10T01:07:17.488Z,78032.19
2022-11-10T01:09:08.735Z,78044.06
2022-11-10T01:11:13.112Z,78040.09
2022-11-10T01:13:04.328Z,78036.16
2022-11-10T01:14:55.533Z,78042.09
2022-11-10T01:16:47.544Z,78042.09
2022-11-10T01:18:39.356Z,78044.06
2022-11-10T01:20:30.875Z,78044.06
2022-11-10T01:22:22.875Z,78044.06
2022-11-10T01:24:14.518Z,78046.03
2022-11-10T01:26:07.653Z,78044.06
2022-11-10T01:27:59.150Z,78042.09
2022-11-10T01:29:50.429Z,78044.06
2022-11-10T01:31:41.770Z,78044.06
2022-11-10T01:33:34.397Z,78055.94
2022-11-10T01:35:26.058Z,78048.03
2022-11-10T01:37:17.603Z,78051.97
2022-11-10T01:39:08.955Z,78053.97
2022-11-10T01:41:00.720Z,78055.94
2022-11-10T01:42:53.217Z,78059.88
2022-11-10T01:45:23.153Z,78059.88
2022-11-10T01:47:14.651Z,78059.88
2022-11-10T01:49:06.343Z,78055.94
2022-11-10T01:51:04.677Z,78051.97
2022-11-10T01:53:02.344Z,78053.97
2022-11-10T01:54:53.787Z,78055.94
2022-11-10T01:56:50.803Z,78069.78
2022-11-10T01:58:48.310Z,78051.97
2022-11-10T02:00:39.469Z,78053.97
2022-11-10T02:02:40.063Z,78051.97
2022-11-10T02:04:31.728Z,78051.97
2022-11-10T02:06:27.472Z,78063.84
2022-11-10T02:08:20.060Z,78059.88
2022-11-10T02:10:17.006Z,78051.97
2022-11-10T02:12:08.518Z,78051.97
2022-11-10T02:14:00.901Z,78050.00
2022-11-10T02:15:52.416Z,78051.97
2022-11-10T02:17:46.132Z,78048.03
2022-11-10T02:19:41.989Z,78048.03
2022-11-10T02:21:33.298Z,78055.94
2022-11-10T02:23:30.824Z,78051.97
2022-11-10T02:25:23.686Z,78057.91
2022-11-10T02:27:14.698Z,78050.00
2022-11-10T02:29:06.543Z,78059.88
2022-11-10T02:30:57.795Z,78055.94
2022-11-10T02:32:48.913Z,78063.84
2022-11-10T02:34:40.416Z,78065.81
2022-11-10T02:36:32.208Z,78053.97
2022-11-10T02:38:24.299Z,78055.94
2022-11-10T02:40:16.129Z,78048.03
2022-11-10T02:42:10.667Z,78055.94
2022-11-10T02:44:04.864Z,78055.94
2022-11-10T02:45:56.105Z,78055.94
2022-11-10T02:47:48.018Z,78051.97
2022-11-10T02:49:39.306Z,78051.97
2022-11-10T02:51:30.572Z,78050.00
2022-11-10T02:53:22.134Z,78046.03
2022-11-10T02:55:13.631Z,78048.03
2022-11-10T02:57:04.767Z,78051.97
2022-11-10T02:58:56.292Z,78051.97
2022-11-10T03:00:47.997Z,78051.97
2022-11-10T03:02:39.578Z,78051.97
2022-11-10T03:04:31.443Z,78051.97
2022-11-10T03:06:22.877Z,78050.00
2022-11-10T03:08:14.110Z,78048.03
2022-11-10T03:10:07.115Z,78048.03
2022-11-10T03:11:58.709Z,78050.00
2022-11-10T03:14:01.620Z,78051.97
2022-11-10T03:15:54.225Z,78055.94
2022-11-10T03:17:45.565Z,78055.94
2022-11-10T03:19:36.974Z,78051.97
2022-11-10T03:21:28.214Z,78055.94
2022-11-10T03:23:20.543Z,78053.97
2022-11-10T03:25:13.033Z,78067.81
2022-11-10T03:27:04.576Z,78061.88
2022-11-10T03:28:55.833Z,78061.88
2022-11-10T03:30:47.039Z,78059.88
2022-11-10T03:32:38.584Z,78053.97
2022-11-10T03:34:31.955Z,78061.88
2022-11-10T03:36:23.613Z,78061.88
2022-11-10T03:38:15.020Z,78075.72
2022-11-10T03:40:06.926Z,78067.81
2022-11-10T03:41:58.693Z,78057.91
2022-11-10T03:43:51.300Z,78059.88
2022-11-10T03:45:45.363Z,78063.84
2022-11-10T03:47:36.864Z,78057.91
2022-11-10T03:49:28.322Z,78067.81
2022-11-10T03:51:19.664Z,78069.78
2022-11-10T03:53:10.971Z,78065.81
2022-11-10T03:55:03.665Z,78067.81
2022-11-10T03:56:55.173Z,78069.78
2022-11-10T03:58:46.457Z,78069.78
2022-11-10T04:00:37.985Z,78069.78
2022-11-10T04:02:29.577Z,78067.81
2022-11-10T04:04:39.851Z,78063.84
2022-11-10T04:06:49.505Z,78067.81
2022-11-10T04:08:59.262Z,78067.81
2022-11-10T04:10:50.991Z,78071.75
2022-11-10T04:13:01.004Z,78067.81
2022-11-10T04:15:11.115Z,78071.75
2022-11-10T04:17:03.325Z,78069.78
2022-11-10T04:18:54.615Z,78073.75
2022-11-10T04:20:46.911Z,78091.53
2022-11-10T04:22:56.699Z,78075.72
2022-11-10T04:24:48.303Z,78067.81
2022-11-10T04:26:40.846Z,78073.75
2022-11-10T04:28:32.335Z,78067.81
2022-11-10T04:30:23.666Z,78063.84
2022-11-10T04:32:14.781Z,78063.84
2022-11-10T04:34:08.028Z,78065.81
2022-11-10T04:36:00.111Z,78065.81
2022-11-10T04:37:51.618Z,78059.88
2022-11-10T04:39:43.417Z,78059.88
2022-11-10T04:41:35.907Z,78065.81
2022-11-10T04:43:27.802Z,78057.91
2022-11-10T04:45:19.032Z,78063.84
2022-11-10T04:47:12.057Z,78065.81
2022-11-10T04:49:04.580Z,78059.88
2022-11-10T04:50:56.358Z,78057.91
2022-11-10T04:52:47.720Z,78067.81
2022-11-10T04:54:39.227Z,78051.97
2022-11-10T04:56:31.239Z,78050.00
2022-11-10T04:58:22.561Z,78040.09
2022-11-10T05:00:15.288Z,78048.03
2022-11-10T05:02:06.930Z,78050.00
2022-11-10T05:03:58.802Z,78042.09
2022-11-10T05:05:50.626Z,78048.03
2022-11-10T05:07:41.765Z,78044.06
2022-11-10T05:09:33.521Z,78044.06
2022-11-10T05:11:25.209Z,78044.06
2022-11-10T05:13:16.798Z,78036.16
2022-11-10T05:15:08.605Z,78036.16
2022-11-10T05:16:59.911Z,78032.19
2022-11-10T05:18:56.218Z,78032.19
2022-11-10T05:20:47.795Z,78030.22
2022-11-10T05:22:38.959Z,78040.09
2022-11-10T05:24:30.574Z,78040.09
2022-11-10T05:26:25.203Z,78036.16
2022-11-10T05:28:17.314Z,78034.19
2022-11-10T05:30:10.059Z,78036.16
2022-11-10T05:32:01.399Z,78040.09
2022-11-10T05:33:53.061Z,78044.06
2022-11-10T05:35:44.988Z,78050.00
2022-11-10T05:37:40.456Z,78048.03
2022-11-10T05:39:31.702Z,78040.09
2022-11-10T05:41:23.537Z,78036.16
2022-11-10T05:43:15.300Z,78036.16
2022-11-10T05:45:07.200Z,78032.19
2022-11-10T05:46:58.836Z,78034.19
2022-11-10T05:48:50.427Z,78040.09
2022-11-10T05:50:43.638Z,78026.25
2022-11-10T05:52:35.798Z,78028.25
2022-11-10T05:54:27.000Z,78032.19
2022-11-10T05:56:18.573Z,78024.28
2022-11-10T05:58:10.403Z,78022.31
2022-11-10T06:00:02.036Z,78024.28
2022-11-10T06:01:54.010Z,78018.34
2022-11-10T06:03:46.499Z,78030.22
2022-11-10T06:05:37.975Z,78022.31
2022-11-10T06:07:29.488Z,78018.34
2022-11-10T06:09:21.159Z,78024.28
2022-11-10T06:11:13.278Z,78028.25
2022-11-10T06:13:05.649Z,78044.06
2022-11-10T06:15:01.098Z,78016.38
2022-11-10T06:16:52.589Z,78024.28
2022-11-10T06:18:43.695Z,78018.34
2022-11-10T06:20:35.506Z,78016.38
2022-11-10T06:22:27.672Z,78024.28
2022-11-10T06:24:19.569Z,78050.00
2022-11-10T06:26:11.836Z,78028.25
2022-11-10T06:28:04.732Z,78028.25
2022-11-10T06:29:55.981Z,78026.25
2022-11-10T06:31:47.531Z,78042.09
2022-11-10T06:33:39.183Z,78026.25
2022-11-10T06:35:31.002Z,78032.19
2022-11-10T06:37:22.580Z,78016.38
2022-11-10T06:39:14.101Z,78020.31
2022-11-10T06:41:05.782Z,78026.25
2022-11-10T06:42:58.229Z,78024.28
2022-11-10T06:44:49.940Z,78020.31
2022-11-10T06:46:42.487Z,78016.38
2022-11-10T06:48:33.656Z,78012.41
2022-11-10T06:50:24.785Z,78014.41
2022-11-10T06:52:16.139Z,78012.41
2022-11-10T06:54:07.950Z,78004.50
2022-11-10T06:56:02.443Z,78000.53
2022-11-10T06:57:54.553Z,78000.53
2022-11-10T06:59:46.223Z,78004.50
2022-11-10T07:01:37.747Z,78000.53
2022-11-10T07:03:29.054Z,78008.47
2022-11-10T07:05:21.032Z,77996.59
2022-11-10T07:07:12.867Z,77996.59
2022-11-10T07:09:04.383Z,78012.41
2022-11-10T07:10:56.420Z,78008.47
2022-11-10T07:12:48.119Z,78004.50
2022-11-10T07:14:39.661Z,78014.41
2022-11-10T07:16:31.104Z,78008.47
2022-11-10T07:18:23.753Z,78012.41
2022-11-10T07:20:15.350Z,78016.38
2022-11-10T07:22:10.995Z,78012.41
2022-11-10T07:24:03.194Z,78008.47
2022-11-10T07:25:54.540Z,78004.50
2022-11-10T07:27:46.378Z,78000.53
2022-11-10T07:29:38.395Z,78004.50
2022-11-10T07:31:29.744Z,78008.47
2022-11-10T07:33:21.754Z,78000.53
2022-11-10T07:35:14.109Z,78008.47
2022-11-10T07:37:05.473Z,78006.47
2022-11-10T07:38:57.055Z,78010.44
2022-11-10T07:40:52.745Z,78000.53
2022-11-10T07:42:43.808Z,77994.63
2022-11-10T07:44:35.009Z,77992.63
2022-11-10T07:46:26.534Z,78000.53
2022-11-10T07:48:18.306Z,77996.59
2022-11-10T07:50:11.028Z,77998.56
2022-11-10T07:52:02.468Z,77996.59
2022-11-10T07:53:53.890Z,77998.56
2022-11-10T07:55:45.892Z,77994.63
2022-11-10T07:57:37.488Z,77992.63
2022-11-10T07:59:29.025Z,77992.63
2022-11-10T08:01:20.485Z,77996.59
2022-11-10T08:03:18.214Z,77990.66
2022-11-10T08:05:09.746Z,77990.66
2022-11-10T08:07:01.481Z,77988.69
2022-11-10T08:08:52.773Z,77978.78
2022-11-10T08:10:44.508Z,77988.69
2022-11-10T08:12:36.615Z,77988.69
2022-11-10T08:14:28.238Z,78002.53
2022-11-10T08:16:19.396Z,78004.50
2022-11-10T08:18:23.773Z,78004.50
2022-11-10T08:20:15.953Z,78020.31
2022-11-10T08:22:07.216Z,78012.41
2022-11-10T08:23:58.558Z,78012.41
2022-11-10T08:25:53.334Z,78016.38
2022-11-10T08:27:44.871Z,78008.47
2022-11-10T08:29:38.922Z,78008.47
2022-11-10T08:31:34.133Z,78004.50
2022-11-10T08:33:26.037Z,77996.59
2022-11-10T08:35:18.030Z,77992.63
2022-11-10T08:37:09.380Z,77988.69
2022-11-10T08:39:00.826Z,77988.69
2022-11-10T08:40:52.474Z,77990.66
2022-11-10T08:42:43.813Z,77976.81
2022-11-10T08:44:35.061Z,77978.78
2022-11-10T08:46:26.550Z,77964.94
2022-11-10T08:48:20.478Z,77959.00
2022-11-10T08:50:11.839Z,77960.97
2022-11-10T08:52:03.543Z,77966.91
2022-11-10T08:53:58.817Z,77957.03
2022-11-10T08:55:50.999Z,77972.84
2022-11-10T08:57:42.347Z,77962.97
2022-11-10T08:59:34.686Z,77960.97
2022-11-10T09:01:26.993Z,77949.13
2022-11-10T09:03:24.958Z,77949.13
2022-11-10T09:05:17.302Z,77949.13
2022-11-10T09:07:09.934Z,77960.97
2022-11-10T09:09:01.596Z,77964.94
2022-11-10T09:10:53.684Z,77984.72
2022-11-10T09:12:45.655Z,77982.75
2022-11-10T09:14:37.790Z,77972.84
2022-11-10T09:16:30.371Z,77970.88
2022-11-10T09:18:22.191Z,77972.84
2022-11-10T09:20:17.244Z,77974.84
2022-11-10T09:22:10.042Z,77976.81
2022-11-10T09:24:01.604Z,77966.91
2022-11-10T09:25:55.513Z,77970.88
2022-11-10T09:27:54.359Z,77976.81
2022-11-10T09:29:46.392Z,77974.84
2022-11-10T09:31:38.742Z,77972.84
2022-11-10T09:33:30.800Z,77957.03
2022-11-10T09:35:22.632Z,77959.00
2022-11-10T09:37:14.098Z,77957.03
2022-11-10T09:39:05.867Z,77949.13
2022-11-10T09:41:07.599Z,77953.06
2022-11-10T09:43:02.388Z,77953.06
2022-11-10T09:45:02.297Z,77957.03
2022-11-10T09:47:19.011Z,77953.06
2022-11-10T09:49:23.972Z,77960.97
2022-11-10T09:51:41.754Z,77970.88
2022-11-10T09:53:50.406Z,77968.91
2022-11-10T09:55:49.886Z,77972.84
2022-11-10T09:57:48.729Z,77986.69
2022-11-10T09:59:41.782Z,77976.81
2022-11-10T10:02:11.250Z,77976.81
2022-11-10T10:04:14.984Z,77982.75
2022-11-10T10:06:15.512Z,77959.00
2022-11-10T10:08:08.178Z,77974.84
2022-11-10T10:10:17.388Z,77960.97
2022-11-10T10:12:27.662Z,77957.03
2022-11-10T10:14:43.146Z,77970.88
2022-11-10T10:16:50.054Z,77968.91
2022-11-10T10:18:46.918Z,77972.84
2022-11-10T10:20:57.459Z,77968.91
2022-11-10T10:23:15.073Z,77968.91
2022-11-10T10:25:14.904Z,77968.91
2022-11-10T10:27:11.025Z,77964.94
2022-11-10T10:29:15.188Z,77951.09
2022-11-10T10:31:19.237Z,77957.03
2022-11-10T10:33:22.556Z,77964.94
2022-11-10T10:35:16.432Z,77968.91
2022-11-10T10:37:44.104Z,77970.88
2022-11-10T10:39:43.389Z,77962.97
2022-11-10T10:41:37.723Z,77968.91
2022-11-10T10:43:29.334Z,77976.81
2022-11-10T10:45:29.425Z,77988.69
2022-11-10T10:47:36.928Z,77988.69
2022-11-10T10:49:31.054Z,77982.75
2022-11-10T10:51:31.532Z,77996.59
2022-11-10T10:53:26.638Z,78006.47
2022-11-10T10:55:21.132Z,78012.41
2022-11-10T10:57:23.630Z,78012.41
2022-11-10T10:59:23.060Z,78014.41
2022-11-10T11:01:18.496Z,78012.41
2022-11-10T11:03:27.723Z,78016.38
2022-11-10T11:05:20.538Z,78028.25
2022-11-10T11:07:24.614Z,78026.25
2022-11-10T11:09:24.298Z,78036.16
2022-11-10T11:11:15.784Z,78028.25
2022-11-10T11:13:24.134Z,78020.31
2022-11-10T11:15:30.670Z,78032.19
2022-11-10T11:17:23.422Z,78024.28
2022-11-10T11:19:16.079Z,78032.19
2022-11-10T11:21:35.313Z,78024.28
2022-11-10T11:23:39.121Z,78030.22
2022-11-10T11:25:39.820Z,78030.22
2022-11-10T11:28:04.403Z,78030.22
2022-11-10T11:30:11.221Z,78032.19
2022-11-10T11:32:24.788Z,78032.19
2022-11-10T11:34:38.197Z,78036.16
2022-11-10T11:36:29.748Z,78032.19
2022-11-10T11:38:41.360Z,78034.19
2022-11-10T11:41:02.127Z,78040.09
2022-11-10T11:43:17.759Z,78044.06
2022-11-10T11:45:27.314Z,78042.09
2022-11-10T11:47:45.339Z,78040.09
2022-11-10T11:50:05.655Z,78036.16
2022-11-10T11:52:26.443Z,78048.03
2022-11-10T11:54:42.241Z,78050.00
2022-11-10T11:56:41.775Z,78051.97
2022-11-10T11:58:43.500Z,78053.97
2022-11-10T12:01:15.584Z,78051.97
2022-11-10T12:03:30.595Z,78059.88
2022-11-10T12:05:49.667Z,78059.88
2022-11-10T12:07:51.927Z,78069.78
2022-11-10T12:09:48.322Z,78059.88
2022-11-10T12:12:18.702Z,78061.88
2022-11-10T12:14:29.195Z,78057.91
2022-11-10T12:16:23.911Z,78051.97
2022-11-10T12:18:37.801Z,78050.00
2022-11-10T12:20:44.300Z,78061.88
2022-11-10T12:22:40.703Z,78061.88
2022-11-10T12:24:55.557Z,78061.88
2022-11-10T12:26:46.759Z,78059.88
2022-11-10T12:28:52.094Z,78063.84
2022-11-10T12:30:44.978Z,78059.88
2022-11-10T12:33:08.573Z,78055.94
2022-11-10T12:35:02.796Z,78067.81
2022-11-10T12:36:54.633Z,78071.75
2022-11-10T12:39:01.716Z,78059.88
2022-11-10T12:41:03.585Z,78067.81
2022-11-10T12:43:02.439Z,78071.75
2022-11-10T12:45:22.011Z,78059.88
2022-11-10T12:47:18.783Z,78065.81
2022-11-10T12:49:18.911Z,78061.88
2022-11-10T12:51:25.450Z,78063.84
2022-11-10T12:53:31.299Z,78057.91
2022-11-10T12:55:47.745Z,78061.88
2022-11-10T12:57:39.432Z,78057.91
2022-11-10T12:59:34.944Z,78055.94
2022-11-10T13:01:26.407Z,78061.88
2022-11-10T13:03:37.171Z,78055.94
2022-11-10T13:05:45.843Z,78055.94
2022-11-10T13:07:37.910Z,78055.94
2022-11-10T13:09:34.887Z,78051.97
2022-11-10T13:11:37.749Z,78053.97
2022-11-10T13:13:29.480Z,78044.06
2022-11-10T13:15:36.186Z,78046.03
2022-11-10T13:17:27.925Z,78053.97
2022-11-10T13:19:25.946Z,78044.06
2022-11-10T13:21:17.853Z,78051.97
2022-11-10T13:23:22.995Z,78038.13
2022-11-10T13:25:36.030Z,78048.03
2022-11-10T13:27:33.772Z,78044.06
2022-11-10T13:29:30.369Z,78038.13
2022-11-10T13:31:27.852Z,78036.16
2022-11-10T13:33:36.866Z,78040.09
2022-11-10T13:35:32.130Z,78038.13
2022-11-10T13:37:35.784Z,78040.09
2022-11-10T13:39:30.840Z,78042.09
2022-11-10T13:41:26.283Z,78042.09
2022-11-10T13:43:21.262Z,78036.16
2022-11-10T13:45:33.307Z,78040.09
2022-11-10T13:47:44.000Z,78036.16
2022-11-10T13:49:41.676Z,78044.06
2022-11-10T13:51:43.073Z,78040.09
2022-11-10T13:54:05.075Z,78040.09
2022-11-10T13:56:18.443Z,78032.19
2022-11-10T13:58:18.773Z,78040.09
2022-11-10T14:00:19.320Z,78036.16
2022-11-10T14:02:37.511Z,78036.16
2022-11-10T14:04:41.778Z,78044.06
2022-11-10T14:06:46.260Z,78038.13
2022-11-10T14:08:42.543Z,78036.16
2022-11-10T14:10:52.232Z,78044.06
2022-11-10T14:13:01.316Z,78040.09
2022-11-10T14:14:56.253Z,78040.09
2022-11-10T14:16:48.526Z,78042.09
2022-11-10T14:19:19.943Z,78040.09
2022-11-10T14:21:29.977Z,78048.03
2022-11-10T14:23:46.932Z,78048.03
2022-11-10T14:25:44.643Z,78042.09
2022-11-10T14:27:38.755Z,78051.97
2022-11-10T14:29:36.049Z,78053.97
2022-11-10T14:31:28.377Z,78057.91
2022-11-10T14:33:21.449Z,78055.94
2022-11-10T14:35:22.674Z,78055.94
2022-11-10T14:37:20.629Z,78057.91
2022-11-10T14:39:16.770Z,78061.88
2022-11-10T14:41:18.116Z,78057.91
2022-11-10T14:43:31.295Z,78055.94
2022-11-10T14:45:25.994Z,78063.84
2022-11-10T14:47:31.638Z,78057.91
2022-11-10T14:49:25.572Z,78059.88
2022-11-10T14:51:19.587Z,78077.69
2022-11-10T14:53:19.638Z,78057.91
2022-11-10T14:55:25.880Z,78059.88
2022-11-10T14:57:21.652Z,78061.88
2022-11-10T14:59:14.892Z,78067.81
2022-11-10T15:01:08.501Z,78055.94
2022-11-10T15:03:02.498Z,78065.81
2022-11-10T15:04:54.545Z,78057.91
2022-11-10T15:06:48.727Z,78067.81
2022-11-10T15:08:41.925Z,78079.66
2022-11-10T15:10:42.256Z,78059.88
2022-11-10T15:12:38.115Z,78077.69
2022-11-10T15:14:37.402Z,78059.88
2022-11-10T15:16:32.159Z,78065.81
2022-11-10T15:18:28.476Z,78075.72
2022-11-10T15:20:39.962Z,78071.75
2022-11-10T15:22:36.362Z,78079.66
2022-11-10T15:24:28.165Z,78075.72
2022-11-10T15:26:25.964Z,78071.75
2022-11-10T15:28:37.816Z,78071.75
2022-11-10T15:30:29.828Z,78073.75
2022-11-10T15:32:23.516Z,78063.84
2022-11-10T15:34:40.835Z,78067.81
2022-11-10T15:36:34.112Z,78073.75
2022-11-10T15:38:32.429Z,78075.72
2022-11-10T15:40:48.776Z,78067.81
2022-11-10T15:42:40.482Z,78071.75
2022-11-10T15:44:32.207Z,78079.66
2022-11-10T15:46:27.011Z,78071.75
2022-11-10T15:48:20.328Z,78085.59
2022-11-10T15:50:12.944Z,78077.69
2022-11-10T15:52:14.962Z,78075.72
2022-11-10T15:54:10.965Z,78071.75
2022-11-10T15:56:02.614Z,78075.72
2022-11-10T15:57:54.479Z,78073.75
2022-11-10T15:59:46.648Z,78067.81
2022-11-10T16:01:38.067Z,78075.72
2022-11-10T16:03:31.763Z,78061.88
2022-11-10T16:05:23.529Z,78071.75
2022-11-10T16:07:15.467Z,78075.72
2022-11-10T16:09:08.429Z,78075.72
2022-11-10T16:11:01.283Z,78069.78
2022-11-10T16:12:52.783Z,78067.81
2022-11-10T16:14:52.082Z,78069.78
2022-11-10T16:16:44.445Z,78063.84
2022-11-10T16:18:43.691Z,78079.66
2022-11-10T16:20:36.054Z,78073.75
2022-11-10T16:22:28.133Z,78079.66
2022-11-10T16:24:19.539Z,78073.75
2022-11-10T16:26:17.805Z,78063.84
2022-11-10T16:28:15.782Z,78067.81
2022-11-10T16:30:14.277Z,78067.81
2022-11-10T16:32:06.305Z,78075.72
2022-11-10T16:33:57.970Z,78067.81
2022-11-10T16:35:52.567Z,78077.69
2022-11-10T16:37:44.838Z,78069.78
2022-11-10T16:39:36.910Z,78069.78
2022-11-10T16:41:28.372Z,78077.69
2022-11-10T16:43:20.782Z,78073.75
2022-11-10T16:45:18.578Z,78067.81
2022-11-10T16:47:17.730Z,78069.78
2022-11-10T16:49:44.362Z,78067.81
2022-11-10T16:51:48.790Z,78069.78
2022-11-10T16:53:41.982Z,78071.75
2022-11-10T16:55:33.666Z,78065.81
2022-11-10T16:57:25.807Z,78067.81
2022-11-10T16:59:36.739Z,78071.75
2022-11-10T17:01:32.458Z,78067.81
2022-11-10T17:03:38.486Z,78073.75
2022-11-10T17:05:30.353Z,78073.75
2022-11-10T17:07:26.563Z,78075.72
2022-11-10T17:09:38.243Z,78075.72
2022-11-10T17:11:30.167Z,78073.75
2022-11-10T17:13:21.596Z,78075.72
2022-11-10T17:15:14.660Z,78099.44
2022-11-10T17:17:06.059Z,78075.72
2022-11-10T17:19:02.276Z,78075.72
2022-11-10T17:20:53.514Z,78083.63
2022-11-10T17:22:45.219Z,78075.72
2022-11-10T17:24:36.990Z,78071.75
2022-11-10T17:26:30.021Z,78071.75
2022-11-10T17:28:21.428Z,78067.81
2022-11-10T17:30:14.274Z,78069.78
2022-11-10T17:32:05.792Z,78067.81
2022-11-10T17:33:57.076Z,78077.69
2022-11-10T17:35:52.035Z,78071.75
2022-11-10T17:37:49.799Z,78075.72
2022-11-10T17:39:41.506Z,78083.63
2022-11-10T17:41:34.302Z,78071.75
2022-11-10T17:43:26.300Z,78069.78
2022-11-10T17:45:24.115Z,78075.72
2022-11-10T17:47:15.544Z,78079.66
2022-11-10T17:49:07.527Z,78065.81
2022-11-10T17:50:58.996Z,78073.75
2022-11-10T17:52:50.475Z,78073.75
2022-11-10T17:54:41.990Z,78075.72
2022-11-10T17:56:33.535Z,78077.69
2022-11-10T17:58:24.989Z,78071.75
2022-11-10T18:00:18.364Z,78077.69
2022-11-10T18:02:11.390Z,78075.72
2022-11-10T18:04:02.956Z,78075.72
2022-11-10T18:05:54.275Z,78067.81
2022-11-10T18:07:45.651Z,78067.81
2022-11-10T18:09:37.048Z,78061.88
2022-11-10T18:11:30.524Z,78067.81
2022-11-10T18:13:22.473Z,78067.81
2022-11-10T18:15:15.488Z,78059.88
2022-11-10T18:17:06.745Z,78067.81
2022-11-10T18:18:59.030Z,78063.84
2022-11-10T18:20:50.407Z,78059.88
2022-11-10T18:22:42.070Z,78057.91
2022-11-10T18:24:33.405Z,78059.88
2022-11-10T18:26:24.961Z,78057.91
2022-11-10T18:28:16.760Z,78059.88
2022-11-10T18:30:08.865Z,78055.94
2022-11-10T18:32:00.500Z,78053.97
2022-11-10T18:33:54.457Z,78048.03
2022-11-10T18:35:45.789Z,78053.97
2022-11-10T18:37:39.291Z,78055.94
2022-11-10T18:39:30.993Z,78048.03
2022-11-10T18:41:40.691Z,78051.97
2022-11-10T18:43:32.393Z,78048.03
2022-11-10T18:45:23.969Z,78071.75
2022-11-10T18:47:15.143Z,78050.00
2022-11-10T18:49:06.689Z,78040.09
2022-11-10T18:50:57.751Z,78044.06
2022-11-10T18:52:49.049Z,78048.03
2022-11-10T18:54:40.596Z,78050.00
2022-11-10T18:56:32.211Z,78040.09
2022-11-10T18:58:23.710Z,78044.06
2022-11-10T19:00:16.243Z,78044.06
2022-11-10T19:02:07.325Z,78046.03
2022-11-10T19:03:58.768Z,78048.03
2022-11-10T19:05:58.401Z,78042.09
2022-11-10T19:07:50.026Z,78044.06
2022-11-10T19:09:41.379Z,78046.03
2022-11-10T19:11:34.364Z,78048.03
2022-11-10T19:13:26.250Z,78046.03
2022-11-10T19:15:17.696Z,78040.09
2022-11-10T19:17:09.561Z,78042.09
2022-11-10T19:19:02.201Z,78036.16
2022-11-10T19:20:53.518Z,78032.19
2022-11-10T19:22:45.061Z,78042.09
2022-11-10T19:24:53.751Z,78044.06
2022-11-10T19:26:51.565Z,78038.13
2022-11-10T19:28:43.162Z,78055.94
2022-11-10T19:30:34.875Z,78040.09
2022-11-10T19:32:26.362Z,78036.16
2022-11-10T19:34:20.663Z,78038.13
2022-11-10T19:36:15.134Z,78044.06
2022-11-10T19:38:06.398Z,78038.13
2022-11-10T19:39:58.106Z,78044.06
2022-11-10T19:41:50.031Z,78038.13
2022-11-10T19:43:44.915Z,78040.09
2022-11-10T19:45:38.843Z,78032.19
2022-11-10T19:47:30.934Z,78032.19
2022-11-10T19:49:22.529Z,78028.25
2022-11-10T19:51:16.917Z,78032.19
2022-11-10T19:53:08.617Z,78032.19
2022-11-10T19:55:00.122Z,78030.22
2022-11-10T19:56:51.882Z,78034.19
2022-11-10T19:58:44.255Z,78036.16
2022-11-10T20:00:35.639Z,78030.22
2022-11-10T20:02:27.503Z,78032.19
2022-11-10T20:04:19.189Z,78042.09
2022-11-10T20:06:12.497Z,78032.19
2022-11-10T20:08:11.964Z,78032.19
2022-11-10T20:10:03.829Z,78028.25
2022-11-10T20:11:55.333Z,78028.25
2022-11-10T20:13:49.734Z,78028.25
2022-11-10T20:15:44.491Z,78028.25
2022-11-10T20:17:35.774Z,78028.25
2022-11-10T20:19:27.182Z,78026.25
2022-11-10T20:21:23.099Z,78020.31
2022-11-10T20:23:16.286Z,78040.09
2022-11-10T20:25:08.334Z,78020.31
2022-11-10T20:27:00.275Z,78026.25
2022-11-10T20:28:52.168Z,78024.28
2022-11-10T20:30:44.695Z,78028.25
2022-11-10T20:32:36.302Z,78026.25
2022-11-10T20:34:27.432Z,78026.25
2022-11-10T20:36:31.811Z,78024.28
2022-11-10T20:38:23.255Z,78020.31
2022-11-10T20:40:38.126Z,78020.31
2022-11-10T20:42:25.994Z,78020.31
2022-11-10T20:44:17.363Z,78014.41
2022-11-10T20:46:16.143Z,78014.41
2022-11-10T20:48:19.634Z,78012.41
2022-11-10T20:50:14.915Z,78012.41
2022-11-10T20:52:08.348Z,78012.41
2022-11-10T20:54:02.859Z,78012.41
2022-11-10T20:56:02.308Z,78008.47
2022-11-10T20:57:54.063Z,78010.44
2022-11-10T20:59:45.540Z,78016.38
2022-11-10T21:01:38.154Z,78016.38
2022-11-10T21:03:30.780Z,78018.34
2022-11-10T21:05:22.176Z,78020.31
2022-11-10T21:07:14.336Z,78020.31
2022-11-10T21:09:09.735Z,78014.41
2022-11-10T21:11:06.244Z,78002.53
2022-11-10T21:12:57.614Z,78006.47
2022-11-10T21:14:48.858Z,78010.44
2022-11-10T21:16:39.952Z,78006.47
2022-11-10T21:18:35.681Z,78012.41
2022-11-10T21:20:27.031Z,78006.47
2022-11-10T21:22:18.536Z,78002.53
2022-11-10T21:24:11.220Z,78000.53
2022-11-10T21:26:02.711Z,78004.50
2022-11-10T21:27:54.185Z,78006.47
2022-11-10T21:29:45.834Z,77994.63
2022-11-10T21:31:37.689Z,78006.47
2022-11-10T21:33:29.305Z,78000.53
2022-11-10T21:35:20.951Z,78002.53
2022-11-10T21:37:12.355Z,78008.47
2022-11-10T21:39:04.048Z,78000.53
2022-11-10T21:40:57.900Z,78008.47
2022-11-10T21:42:54.710Z,77998.56
2022-11-10T21:44:46.014Z,77996.59
2022-11-10T21:46:39.018Z,77996.59
2022-11-10T21:48:30.584Z,78000.53
2022-11-10T21:50:22.059Z,78002.53
2022-11-10T21:52:13.877Z,78002.53
2022-11-10T21:54:05.442Z,77998.56
2022-11-10T21:56:00.766Z,77994.63
2022-11-10T21:57:58.270Z,78000.53
2022-11-10T21:59:51.696Z,78008.47
2022-11-10T22:01:43.050Z,77998.56
2022-11-10T22:03:35.668Z,78004.50
2022-11-10T22:05:26.892Z,77996.59
2022-11-10T22:07:24.191Z,78008.47
2022-11-10T22:09:35.619Z,78006.47
2022-11-10T22:11:44.834Z,78000.53
2022-11-10T22:13:55.201Z,78008.47
2022-11-10T22:16:05.562Z,78000.53
2022-11-10T22:18:16.032Z,77996.59
2022-11-10T22:20:08.090Z,77996.59
2022-11-10T22:22:03.625Z,78000.53
2022-11-10T22:24:14.048Z,77996.59
2022-11-10T22:26:05.618Z,77992.63
2022-11-10T22:27:57.813Z,77996.59
2022-11-10T22:29:49.284Z,77988.69
2022-11-10T22:31:40.679Z,77988.69
2022-11-10T22:33:43.009Z,77990.66
2022-11-10T22:35:43.664Z,77988.69
2022-11-10T22:37:35.214Z,77992.63
2022-11-10T22:39:49.703Z,77986.69